createdAt,value
2023-04-10T00:03:12.949Z,2.35
2023-04-10T00:08:35.026Z,4.07
2023-04-10T00:13:56.885Z,2.35
2023-04-10T00:19:18.731Z,3.20
2023-04-10T00:24:40.596Z,1.65
2023-04-10T00:30:02.982Z,2.92
2023-04-10T00:35:24.839Z,1.60
2023-04-10T00:40:46.698Z,2.00
2023-04-10T00:46:08.678Z,3.10
2023-04-10T00:51:31.607Z,1.35
2023-04-10T00:56:53.623Z,2.00
2023-04-10T01:02:15.993Z,1.58
2023-04-10T01:07:44.244Z,1.58
2023-04-10T01:13:08.734Z,1.33
2023-04-10T01:18:38.048Z,1.30
2023-04-10T01:24:24.496Z,1.88
2023-04-10T01:29:52.535Z,1.63
2023-04-10T01:35:16.876Z,1.63
2023-04-10T01:40:42.786Z,1.40
2023-04-10T01:46:05.706Z,1.40
2023-04-10T01:51:28.418Z,2.78
2023-04-10T01:56:50.468Z,1.20
2023-04-10T02:02:12.584Z,1.77
2023-04-10T02:07:42.681Z,2.28
2023-04-10T02:13:07.684Z,1.85
2023-04-10T02:18:32.374Z,1.00
2023-04-10T02:23:54.580Z,1.67
2023-04-10T02:29:17.180Z,1.38
2023-04-10T02:34:39.052Z,1.45
2023-04-10T02:40:00.994Z,1.10
2023-04-10T02:45:23.141Z,1.30
2023-04-10T02:50:46.907Z,1.42
2023-04-10T02:56:09.394Z,1.08
2023-04-10T03:01:31.440Z,2.05
2023-04-10T03:06:53.702Z,1.20
2023-04-10T03:12:15.771Z,1.20
2023-04-10T03:17:37.836Z,0.73
2023-04-10T03:23:00.978Z,1.20
2023-04-10T03:28:22.934Z,1.30
2023-04-10T03:33:44.969Z,1.02
2023-04-10T03:39:06.863Z,1.30
2023-04-10T03:44:28.670Z,1.08
2023-04-10T03:49:50.538Z,1.65
2023-04-10T03:55:12.500Z,0.85
2023-04-10T04:00:34.467Z,0.93
2023-04-10T04:05:56.548Z,1.20
2023-04-10T04:11:18.416Z,0.95
2023-04-10T04:16:40.301Z,0.80
2023-04-10T04:22:02.262Z,1.25
2023-04-10T04:27:24.197Z,0.77
2023-04-10T04:32:46.091Z,0.80
2023-04-10T04:38:07.991Z,1.10
2023-04-10T04:43:29.796Z,0.90
2023-04-10T04:48:51.646Z,1.15
2023-04-10T04:54:13.526Z,0.82
2023-04-10T04:59:35.708Z,1.00
2023-04-10T05:04:57.589Z,0.73
2023-04-10T05:10:21.226Z,0.70
2023-04-10T05:15:43.406Z,1.20
2023-04-10T05:21:05.455Z,0.55
2023-04-10T05:26:27.601Z,0.75
2023-04-10T05:31:50.637Z,1.85
2023-04-10T05:37:13.395Z,1.10
2023-04-10T05:42:35.228Z,1.50
2023-04-10T05:47:57.083Z,1.20
2023-04-10T05:53:21.446Z,0.88
2023-04-10T05:58:43.364Z,0.63
2023-04-10T06:04:05.341Z,0.70
2023-04-10T06:09:27.570Z,0.60
2023-04-10T06:14:49.456Z,0.80
2023-04-10T06:20:11.666Z,1.20
2023-04-10T06:25:33.511Z,0.65
2023-04-10T06:30:55.505Z,0.68
2023-04-10T06:36:18.129Z,0.80
2023-04-10T06:41:39.954Z,1.02
2023-04-10T06:47:01.805Z,0.80
2023-04-10T06:52:24.173Z,0.80
2023-04-10T06:57:46.095Z,0.85
2023-04-10T07:03:08.246Z,2.85
2023-04-10T07:08:30.231Z,5.40
2023-04-10T07:13:54.017Z,6.28
2023-04-10T07:19:16.230Z,6.05
2023-04-10T07:24:38.084Z,4.50
2023-04-10T07:29:59.926Z,5.32
2023-04-10T07:35:22.124Z,10.15
2023-04-10T07:40:43.940Z,6.85
2023-04-10T07:46:06.496Z,6.63
2023-04-10T07:51:29.879Z,6.60
2023-04-10T07:56:54.714Z,5.22
2023-04-10T08:02:16.762Z,3.00
2023-04-10T08:07:41.029Z,4.85
2023-04-10T08:13:02.865Z,6.65
2023-04-10T08:18:24.801Z,5.60
2023-04-10T08:23:47.296Z,4.93
2023-04-10T08:29:09.261Z,4.72
2023-04-10T08:34:31.159Z,6.32
2023-04-10T08:39:53.535Z,3.78
2023-04-10T08:45:15.975Z,3.58
2023-04-10T08:50:42.450Z,7.88
2023-04-10T08:56:05.806Z,3.67
2023-04-10T09:01:27.713Z,4.82
2023-04-10T09:06:49.641Z,6.75
2023-04-10T09:12:16.568Z,6.07
2023-04-10T09:17:39.248Z,8.02
2023-04-10T09:23:02.098Z,9.52
2023-04-10T09:28:23.997Z,8.55
2023-04-10T09:33:46.444Z,12.38
2023-04-10T09:39:10.705Z,7.00
2023-04-10T09:44:35.160Z,10.75
2023-04-10T09:50:01.032Z,8.63
2023-04-10T09:55:22.893Z,11.40
2023-04-10T10:00:49.953Z,12.75
2023-04-10T10:06:12.256Z,9.30
2023-04-10T10:11:35.794Z,3.42
2023-04-10T10:17:02.059Z,8.90
2023-04-10T10:22:26.493Z,7.40
2023-04-10T10:27:50.067Z,8.55
2023-04-10T10:33:14.272Z,7.30
2023-04-10T10:38:42.070Z,5.30
2023-04-10T10:44:13.750Z,3.63
2023-04-10T10:50:01.441Z,9.90
2023-04-10T10:55:23.284Z,9.70
2023-04-10T11:00:51.137Z,5.03
2023-04-10T11:06:17.436Z,6.85
2023-04-10T11:11:59.361Z,6.13
2023-04-10T11:17:49.222Z,5.57
2023-04-10T11:23:12.887Z,3.95
2023-04-10T11:28:39.677Z,8.15
2023-04-10T11:34:06.447Z,9.38
2023-04-10T11:39:28.649Z,7.95
2023-04-10T11:44:51.761Z,15.13
2023-04-10T11:50:14.883Z,13.35
2023-04-10T11:55:39.974Z,19.23
2023-04-10T12:01:04.419Z,6.85
2023-04-10T12:06:27.881Z,17.75
2023-04-10T12:12:03.766Z,24.00
2023-04-10T12:17:25.834Z,29.00
2023-04-10T12:22:48.341Z,24.13
2023-04-10T12:28:17.948Z,29.60
2023-04-10T12:33:39.821Z,17.20
2023-04-10T12:39:04.250Z,18.70
2023-04-10T12:44:26.192Z,21.50
2023-04-10T12:50:07.056Z,18.13
2023-04-10T12:55:31.978Z,10.88
2023-04-10T13:00:56.453Z,11.90
2023-04-10T13:06:18.428Z,5.60
2023-04-10T13:11:41.075Z,12.43
2023-04-10T13:17:02.931Z,12.20
2023-04-10T13:22:24.756Z,8.82
2023-04-10T13:27:46.595Z,8.25
2023-04-10T13:33:09.630Z,8.02
2023-04-10T13:38:31.678Z,13.25
2023-04-10T13:43:53.773Z,10.95
2023-04-10T13:49:18.201Z,4.25
2023-04-10T13:54:40.062Z,13.85
2023-04-10T14:00:02.194Z,12.40
2023-04-10T14:05:24.093Z,12.40
2023-04-10T14:10:50.912Z,8.35
2023-04-10T14:16:13.118Z,6.18
2023-04-10T14:21:35.281Z,9.90
2023-04-10T14:27:01.016Z,5.97
2023-04-10T14:32:23.153Z,8.80
2023-04-10T14:37:45.125Z,13.32
2023-04-10T14:43:07.569Z,7.50
2023-04-10T14:48:29.926Z,10.02
2023-04-10T14:53:52.525Z,12.18
2023-04-10T14:59:14.573Z,4.68
2023-04-10T15:04:36.614Z,10.80
2023-04-10T15:09:58.932Z,6.40
2023-04-10T15:15:20.836Z,10.55
2023-04-10T15:20:43.396Z,9.50
2023-04-10T15:26:05.537Z,12.27
2023-04-10T15:31:28.157Z,7.50
2023-04-10T15:36:50.093Z,6.68
2023-04-10T15:42:12.065Z,8.57
2023-04-10T15:47:33.958Z,9.75
2023-04-10T15:52:55.955Z,9.43
2023-04-10T15:58:17.808Z,4.53
2023-04-10T16:03:39.900Z,5.28
2023-04-10T16:09:02.171Z,9.68
2023-04-10T16:14:24.922Z,10.20
2023-04-10T16:19:46.960Z,15.30
2023-04-10T16:25:09.619Z,19.65
2023-04-10T16:30:31.529Z,18.23
2023-04-10T16:35:54.284Z,17.33
2023-04-10T16:41:21.094Z,21.35
2023-04-10T16:46:43.062Z,13.52
2023-04-10T16:52:04.962Z,14.23
2023-04-10T16:57:26.902Z,15.20
2023-04-10T17:02:49.504Z,8.75
2023-04-10T17:08:11.326Z,11.00
2023-04-10T17:13:34.264Z,9.07
2023-04-10T17:18:56.918Z,8.75
2023-04-10T17:24:19.043Z,10.55
2023-04-10T17:29:41.487Z,6.88
2023-04-10T17:35:03.437Z,6.00
2023-04-10T17:40:25.347Z,8.63
2023-04-10T17:45:47.304Z,7.03
2023-04-10T17:51:09.454Z,12.50
2023-04-10T17:56:32.023Z,15.65
2023-04-10T18:01:54.058Z,20.17
2023-04-10T18:07:16.207Z,8.70
2023-04-10T18:12:38.114Z,10.77
2023-04-10T18:17:59.965Z,10.52
2023-04-10T18:23:24.390Z,8.50
2023-04-10T18:28:46.583Z,8.27
2023-04-10T18:34:08.933Z,8.35
2023-04-10T18:39:30.989Z,8.38
2023-04-10T18:44:52.837Z,7.65
2023-04-10T18:50:14.767Z,5.13
2023-04-10T18:55:36.669Z,2.60
2023-04-10T19:00:58.632Z,5.97
2023-04-10T19:06:24.484Z,5.43
2023-04-10T19:11:46.422Z,4.28
2023-04-10T19:17:08.777Z,5.30
2023-04-10T19:22:33.110Z,9.85
2023-04-10T19:27:55.131Z,12.10
2023-04-10T19:33:17.491Z,7.93
2023-04-10T19:38:41.241Z,12.82
2023-04-10T19:44:03.116Z,13.90
2023-04-10T19:49:25.441Z,14.98
2023-04-10T19:54:48.131Z,11.52
2023-04-10T20:00:10.624Z,19.35
2023-04-10T20:05:32.546Z,30.77
2023-04-10T20:10:56.078Z,19.00
2023-04-10T20:16:19.156Z,19.73
2023-04-10T20:21:41.214Z,31.52
2023-04-10T20:27:03.390Z,27.23
2023-04-10T20:32:25.385Z,19.98
2023-04-10T20:37:47.693Z,22.70
2023-04-10T20:43:12.444Z,16.02
2023-04-10T20:48:34.551Z,19.43
2023-04-10T20:53:56.463Z,22.80
2023-04-10T20:59:18.705Z,25.63
2023-04-10T21:04:40.561Z,18.80
2023-04-10T21:10:02.513Z,21.38
2023-04-10T21:15:24.454Z,14.18
2023-04-10T21:20:46.339Z,14.55
2023-04-10T21:26:08.312Z,19.40
2023-04-10T21:31:30.163Z,21.48
2023-04-10T21:36:51.976Z,22.60
2023-04-10T21:42:13.834Z,22.05
2023-04-10T21:47:35.704Z,15.40
2023-04-10T21:52:57.660Z,18.10
2023-04-10T21:58:19.601Z,20.83
2023-04-10T22:03:41.639Z,13.23
2023-04-10T22:09:03.662Z,13.68
2023-04-10T22:14:26.015Z,7.03
2023-04-10T22:19:47.856Z,11.48
2023-04-10T22:25:09.815Z,8.95
2023-04-10T22:30:31.652Z,9.68
2023-04-10T22:35:53.952Z,10.15
2023-04-10T22:41:15.916Z,8.52
2023-04-10T22:46:38.015Z,9.60
2023-04-10T22:52:00.128Z,6.30
2023-04-10T22:57:21.990Z,5.57
2023-04-10T23:02:44.070Z,5.30
2023-04-10T23:08:06.000Z,6.00
2023-04-10T23:13:27.828Z,7.63
2023-04-10T23:18:50.921Z,5.47
2023-04-10T23:24:12.732Z,6.93
2023-04-10T23:29:35.136Z,6.88
2023-04-10T23:34:56.974Z,6.72
2023-04-10T23:40:19.971Z,4.85
2023-04-10T23:45:41.809Z,3.42
2023-04-10T23:51:05.452Z,5.68
2023-04-10T23:56:29.470Z,5.45
